sensor_id;sensor_type;location;lat;lon;timestamp;pressure;altitude;pressure_sealevel;temperature;humidity
19811;BME280;10065;49.632;8.346;2023-07-28T00:09:07;99785.66;;;19.52;100.00
19811;BME280;10065;49.632;8.346;2023-07-28T00:16:15;99790.97;;;19.59;100.00
19811;BME280;10065;49.632;8.346;2023-07-28T00:31:05;99773.09;;;19.65;100.00
19811;BME280;10065;49.632;8.346;2023-07-28T00:34:09;99775.19;;;19.63;100.00
19811;BME280;10065;49.632;8.346;2023-07-28T00:37:18;99761.53;;;19.64;100.00
19811;BME280;10065;49.632;8.346;2023-07-28T00:39:56;99759.66;;;19.65;100.00
19811;BME280;10065;49.632;8.346;2023-07-28T00:42:46;99762.00;;;19.61;100.00
19811;BME280;10065;49.632;8.346;2023-07-28T00:57:07;99763.69;;;19.74;100.00
19811;BME280;10065;49.632;8.346;2023-07-28T01:00:40;99764.09;;;19.77;100.00
19811;BME280;10065;49.632;8.346;2023-07-28T01:03:34;99771.31;;;19.77;100.00
19811;BME280;10065;49.632;8.346;2023-07-28T01:17:42;99753.47;;;19.64;100.00
19811;BME280;10065;49.632;8.346;2023-07-28T01:25:02;99757.41;;;19.62;100.00
19811;BME280;10065;49.632;8.346;2023-07-28T01:28:03;99760.69;;;19.64;100.00
19811;BME280;10065;49.632;8.346;2023-07-28T01:39:29;99757.28;;;19.57;100.00
19811;BME280;10065;49.632;8.346;2023-07-28T01:49:55;99752.22;;;19.42;100.00
19811;BME280;10065;49.632;8.346;2023-07-28T01:56:55;99762.88;;;19.55;100.00
19811;BME280;10065;49.632;8.346;2023-07-28T02:02:41;99758.91;;;19.58;100.00
19811;BME280;10065;49.632;8.346;2023-07-28T02:11:08;99763.59;;;19.62;100.00
19811;BME280;10065;49.632;8.346;2023-07-28T02:12:58;99756.63;;;19.61;100.00
19811;BME280;10065;49.632;8.346;2023-07-28T02:16:26;99752.50;;;19.59;100.00
19811;BME280;10065;49.632;8.346;2023-07-28T02:19:49;99758.47;;;19.61;100.00
19811;BME280;10065;49.632;8.346;2023-07-28T02:22:29;99756.63;;;19.61;100.00
19811;BME280;10065;49.632;8.346;2023-07-28T02:29:21;99754.34;;;19.58;100.00
19811;BME280;10065;49.632;8.346;2023-07-28T02:33:00;99745.59;;;19.63;100.00
19811;BME280;10065;49.632;8.346;2023-07-28T02:36:10;99753.31;;;19.59;100.00
19811;BME280;10065;49.632;8.346;2023-07-28T02:46:22;99755.41;;;19.57;100.00
19811;BME280;10065;49.632;8.346;2023-07-28T02:50:06;99754.19;;;19.53;100.00
19811;BME280;10065;49.632;8.346;2023-07-28T02:53:06;99762.44;;;19.58;100.00
19811;BME280;10065;49.632;8.346;2023-07-28T02:56:02;99758.00;;;19.64;100.00
19811;BME280;10065;49.632;8.346;2023-07-28T03:02:35;99763.91;;;19.54;100.00
19811;BME280;10065;49.632;8.346;2023-07-28T03:05:36;99765.19;;;19.51;100.00
19811;BME280;10065;49.632;8.346;2023-07-28T03:08:25;99770.31;;;19.53;100.00
19811;BME280;10065;49.632;8.346;2023-07-28T03:14:58;99777.00;;;19.50;100.00
19811;BME280;10065;49.632;8.346;2023-07-28T03:17:56;99772.44;;;19.51;100.00
19811;BME280;10065;49.632;8.346;2023-07-28T03:21:00;99769.75;;;19.51;100.00
19811;BME280;10065;49.632;8.346;2023-07-28T03:23:51;99769.75;;;19.51;100.00
19811;BME280;10065;49.632;8.346;2023-07-28T03:31:03;99768.72;;;19.45;100.00
19811;BME280;10065;49.632;8.346;2023-07-28T03:47:40;99774.84;;;19.59;100.00
19811;BME280;10065;49.632;8.346;2023-07-28T03:51:54;99771.09;;;19.60;100.00
19811;BME280;10065;49.632;8.346;2023-07-28T03:54:46;99770.63;;;19.63;100.00
19811;BME280;10065;49.632;8.346;2023-07-28T04:03:35;99774.66;;;19.54;100.00
19811;BME280;10065;49.632;8.346;2023-07-28T04:12:02;99766.97;;;19.58;100.00
19811;BME280;10065;49.632;8.346;2023-07-28T04:18:10;99763.84;;;19.61;100.00
19811;BME280;10065;49.632;8.346;2023-07-28T04:40:19;99790.50;;;19.62;100.00
19811;BME280;10065;49.632;8.346;2023-07-28T04:43:33;99786.78;;;19.63;100.00
19811;BME280;10065;49.632;8.346;2023-07-28T04:54:13;99814.41;;;19.70;100.00
19811;BME280;10065;49.632;8.346;2023-07-28T04:57:31;99826.38;;;19.74;100.00
19811;BME280;10065;49.632;8.346;2023-07-28T05:04:22;99822.66;;;19.75;100.00
19811;BME280;10065;49.632;8.346;2023-07-28T05:07:54;99820.56;;;19.77;100.00
19811;BME280;10065;49.632;8.346;2023-07-28T05:10:52;99821.75;;;19.81;100.00
19811;BME280;10065;49.632;8.346;2023-07-28T05:14:06;99822.75;;;19.87;100.00
19811;BME280;10065;49.632;8.346;2023-07-28T05:28:11;99818.84;;;19.83;100.00
19811;BME280;10065;49.632;8.346;2023-07-28T05:31:10;99823.63;;;19.81;100.00
19811;BME280;10065;49.632;8.346;2023-07-28T05:37:49;99829.59;;;19.83;100.00
19811;BME280;10065;49.632;8.346;2023-07-28T05:41:04;99830.00;;;19.86;100.00
19811;BME280;10065;49.632;8.346;2023-07-28T05:44:06;99825.88;;;19.84;100.00
19811;BME280;10065;49.632;8.346;2023-07-28T05:46:51;99836.56;;;19.90;100.00
19811;BME280;10065;49.632;8.346;2023-07-28T05:49:20;99834.03;;;19.96;100.00
19811;BME280;10065;49.632;8.346;2023-07-28T05:51:49;99834.78;;;20.03;100.00
19811;BME280;10065;49.632;8.346;2023-07-28T05:58:23;99840.38;;;20.01;100.00
19811;BME280;10065;49.632;8.346;2023-07-28T06:01:04;99833.72;;;20.04;100.00
19811;BME280;10065;49.632;8.346;2023-07-28T06:04:16;99842.97;;;20.08;100.00
19811;BME280;10065;49.632;8.346;2023-07-28T06:06:52;99841.50;;;20.12;100.00
19811;BME280;10065;49.632;8.346;2023-07-28T06:09:24;99853.66;;;20.14;100.00
19811;BME280;10065;49.632;8.346;2023-07-28T06:12:28;99852.03;;;20.13;100.00
19811;BME280;10065;49.632;8.346;2023-07-28T06:15:16;99854.94;;;20.12;100.00
19811;BME280;10065;49.632;8.346;2023-07-28T06:18:07;99860.94;;;20.14;100.00
19811;BME280;10065;49.632;8.346;2023-07-28T06:20:50;99860.69;;;20.15;100.00
19811;BME280;10065;49.632;8.346;2023-07-28T06:23:40;99861.50;;;20.16;100.00
19811;BME280;10065;49.632;8.346;2023-07-28T06:26:29;99858.81;;;20.16;100.00
19811;BME280;10065;49.632;8.346;2023-07-28T06:32:49;99869.75;;;20.21;100.00
19811;BME280;10065;49.632;8.346;2023-07-28T06:46:55;99901.59;;;20.24;100.00
19811;BME280;10065;49.632;8.346;2023-07-28T06:52:57;99899.06;;;20.29;100.00
19811;BME280;10065;49.632;8.346;2023-07-28T06:56:06;99899.72;;;20.24;100.00
19811;BME280;10065;49.632;8.346;2023-07-28T07:02:36;99909.59;;;20.31;100.00
19811;BME280;10065;49.632;8.346;2023-07-28T07:05:15;99905.22;;;20.36;100.00
19811;BME280;10065;49.632;8.346;2023-07-28T07:07:57;99906.03;;;20.37;100.00
19811;BME280;10065;49.632;8.346;2023-07-28T07:18:15;99915.44;;;20.64;100.00
19811;BME280;10065;49.632;8.346;2023-07-28T07:20:56;99920.97;;;20.69;100.00
19811;BME280;10065;49.632;8.346;2023-07-28T07:28:06;99912.13;;;20.80;100.00
19811;BME280;10065;49.632;8.346;2023-07-28T07:31:34;99918.94;;;20.83;100.00
19811;BME280;10065;49.632;8.346;2023-07-28T07:36:51;99914.72;;;20.87;100.00
19811;BME280;10065;49.632;8.346;2023-07-28T07:44:38;99918.06;;;21.12;97.18
19811;BME280;10065;49.632;8.346;2023-07-28T07:50:33;99920.72;;;21.30;95.97
19811;BME280;10065;49.632;8.346;2023-07-28T07:54:01;99927.22;;;21.41;96.44
19811;BME280;10065;49.632;8.346;2023-07-28T08:01:20;99921.59;;;21.66;91.23
19811;BME280;10065;49.632;8.346;2023-07-28T08:07:39;99923.38;;;21.95;89.00
19811;BME280;10065;49.632;8.346;2023-07-28T08:31:23;99941.94;;;21.80;86.87
19811;BME280;10065;49.632;8.346;2023-07-28T08:37:36;99938.06;;;21.88;87.39
19811;BME280;10065;49.632;8.346;2023-07-28T08:40:46;99943.69;;;21.86;87.75
19811;BME280;10065;49.632;8.346;2023-07-28T08:43:38;99952.38;;;21.88;87.46
19811;BME280;10065;49.632;8.346;2023-07-28T08:46:56;99950.50;;;22.00;86.29
19811;BME280;10065;49.632;8.346;2023-07-28T08:50:06;99938.53;;;21.96;85.92
19811;BME280;10065;49.632;8.346;2023-07-28T08:53:02;99945.59;;;21.97;85.64
19811;BME280;10065;49.632;8.346;2023-07-28T08:58:42;99942.75;;;21.92;85.91
19811;BME280;10065;49.632;8.346;2023-07-28T09:02:34;99943.34;;;21.94;85.60
19811;BME280;10065;49.632;8.346;2023-07-28T09:04:36;99946.50;;;21.91;85.47
19811;BME280;10065;49.632;8.346;2023-07-28T09:07:08;99946.03;;;21.94;86.08
19811;BME280;10065;49.632;8.346;2023-07-28T09:09:46;99952.28;;;22.06;86.02
19811;BME280;10065;49.632;8.346;2023-07-28T09:16:18;99956.97;;;22.11;85.69
19811;BME280;10065;49.632;8.346;2023-07-28T09:19:10;99946.63;;;22.20;84.48
19811;BME280;10065;49.632;8.346;2023-07-28T09:22:01;99943.09;;;22.31;82.32
19811;BME280;10065;49.632;8.346;2023-07-28T09:24:32;99943.56;;;22.39;81.21
19811;BME280;10065;49.632;8.346;2023-07-28T09:27:01;99950.78;;;22.62;80.27
19811;BME280;10065;49.632;8.346;2023-07-28T09:29:47;99952.97;;;22.88;79.16
19811;BME280;10065;49.632;8.346;2023-07-28T09:33:00;99947.47;;;23.12;77.24
19811;BME280;10065;49.632;8.346;2023-07-28T09:35:41;99944.94;;;23.22;77.45
19811;BME280;10065;49.632;8.346;2023-07-28T09:38:51;99950.31;;;23.50;74.93
19811;BME280;10065;49.632;8.346;2023-07-28T09:41:29;99957.84;;;23.48;74.96
19811;BME280;10065;49.632;8.346;2023-07-28T09:44:03;99948.22;;;23.41;75.04
19811;BME280;10065;49.632;8.346;2023-07-28T09:46:35;99958.63;;;23.32;75.54
19811;BME280;10065;49.632;8.346;2023-07-28T09:49:15;99954.22;;;23.26;75.47
19811;BME280;10065;49.632;8.346;2023-07-28T09:51:54;99957.06;;;23.19;75.14
19811;BME280;10065;49.632;8.346;2023-07-28T09:54:40;99955.47;;;23.07;75.81
19811;BME280;10065;49.632;8.346;2023-07-28T09:57:21;99951.03;;;23.01;76.36
19811;BME280;10065;49.632;8.346;2023-07-28T10:00:18;99955.47;;;23.07;76.11
19811;BME280;10065;49.632;8.346;2023-07-28T10:02:53;99956.44;;;23.01;76.51
19811;BME280;10065;49.632;8.346;2023-07-28T10:05:35;99959.94;;;22.84;77.15
19811;BME280;10065;49.632;8.346;2023-07-28T10:08:05;99962.84;;;22.71;77.82
19811;BME280;10065;49.632;8.346;2023-07-28T10:10:41;99967.50;;;22.59;78.46
19811;BME280;10065;49.632;8.346;2023-07-28T10:13:19;99972.69;;;22.49;79.47
19811;BME280;10065;49.632;8.346;2023-07-28T10:15:53;99970.91;;;22.43;79.22
19811;BME280;10065;49.632;8.346;2023-07-28T10:18:28;99969.63;;;22.45;79.60
19811;BME280;10065;49.632;8.346;2023-07-28T10:27:35;99971.94;;;22.77;78.54
19811;BME280;10065;49.632;8.346;2023-07-28T10:30:12;99974.94;;;22.92;77.52
19811;BME280;10065;49.632;8.346;2023-07-28T10:36:35;99982.81;;;22.94;77.02
19811;BME280;10065;49.632;8.346;2023-07-28T10:42:36;99980.97;;;22.82;77.08
19811;BME280;10065;49.632;8.346;2023-07-28T10:45:29;99986.50;;;22.76;77.38
19811;BME280;10065;49.632;8.346;2023-07-28T11:07:27;99986.94;;;22.73;78.31
19811;BME280;10065;49.632;8.346;2023-07-28T11:10:33;99987.09;;;22.66;78.34
19811;BME280;10065;49.632;8.346;2023-07-28T11:20:48;99987.69;;;22.57;78.87
19811;BME280;10065;49.632;8.346;2023-07-28T11:23:40;99982.88;;;22.59;78.56
19811;BME280;10065;49.632;8.346;2023-07-28T11:26:30;99984.25;;;22.61;78.44
19811;BME280;10065;49.632;8.346;2023-07-28T11:29:27;99989.66;;;22.61;78.17
19811;BME280;10065;49.632;8.346;2023-07-28T11:32:10;99986.03;;;22.56;78.98
19811;BME280;10065;49.632;8.346;2023-07-28T11:38:31;99985.69;;;22.52;79.94
19811;BME280;10065;49.632;8.346;2023-07-28T11:41:19;99985.34;;;22.48;80.92
19811;BME280;10065;49.632;8.346;2023-07-28T11:44:31;99992.41;;;22.49;81.50
19811;BME280;10065;49.632;8.346;2023-07-28T11:47:27;99985.00;;;22.45;81.59
19811;BME280;10065;49.632;8.346;2023-07-28T11:50:41;99989.94;;;22.48;81.42
19811;BME280;10065;49.632;8.346;2023-07-28T11:53:51;99995.13;;;22.38;81.97
19811;BME280;10065;49.632;8.346;2023-07-28T11:57:15;100007.78;;;22.37;81.75
19811;BME280;10065;49.632;8.346;2023-07-28T12:00:14;100010.16;;;22.34;81.79
19811;BME280;10065;49.632;8.346;2023-07-28T12:07:03;99997.00;;;22.26;82.66
19811;BME280;10065;49.632;8.346;2023-07-28T12:13:06;99996.66;;;22.34;82.92
19811;BME280;10065;49.632;8.346;2023-07-28T12:16:00;99995.94;;;22.38;82.53
19811;BME280;10065;49.632;8.346;2023-07-28T12:25:18;99998.28;;;22.46;83.24
19811;BME280;10065;49.632;8.346;2023-07-28T12:27:53;99992.19;;;22.51;83.22
19811;BME280;10065;49.632;8.346;2023-07-28T12:30:23;99991.66;;;22.66;81.26
19811;BME280;10065;49.632;8.346;2023-07-28T12:32:55;99993.31;;;22.55;82.05
19811;BME280;10065;49.632;8.346;2023-07-28T12:36:02;99995.94;;;22.50;81.86
19811;BME280;10065;49.632;8.346;2023-07-28T12:38:53;100003.91;;;22.45;81.91
19811;BME280;10065;49.632;8.346;2023-07-28T12:42:04;100002.16;;;22.39;81.96
19811;BME280;10065;49.632;8.346;2023-07-28T12:45:34;99997.22;;;22.36;82.25
19811;BME280;10065;49.632;8.346;2023-07-28T12:48:17;99996.06;;;22.32;83.07
19811;BME280;10065;49.632;8.346;2023-07-28T12:51:16;100005.00;;;22.32;83.14
19811;BME280;10065;49.632;8.346;2023-07-28T12:54:01;100007.69;;;22.32;83.09
19811;BME280;10065;49.632;8.346;2023-07-28T12:56:34;99999.38;;;22.34;83.55
19811;BME280;10065;49.632;8.346;2023-07-28T12:59:40;100005.22;;;22.31;84.35
19811;BME280;10065;49.632;8.346;2023-07-28T13:02:14;100008.16;;;22.29;84.80
19811;BME280;10065;49.632;8.346;2023-07-28T13:04:46;100008.63;;;22.26;84.97
19811;BME280;10065;49.632;8.346;2023-07-28T13:07:20;100009.81;;;22.30;85.54
19811;BME280;10065;49.632;8.346;2023-07-28T13:10:05;100013.19;;;22.26;86.38
19811;BME280;10065;49.632;8.346;2023-07-28T13:12:58;100009.44;;;22.27;86.28
19811;BME280;10065;49.632;8.346;2023-07-28T13:15:27;100007.00;;;22.25;86.51
19811;BME280;10065;49.632;8.346;2023-07-28T13:18:12;100012.59;;;22.35;86.16
19811;BME280;10065;49.632;8.346;2023-07-28T13:21:06;100015.66;;;22.27;86.37
19811;BME280;10065;49.632;8.346;2023-07-28T13:23:43;100024.00;;;22.26;85.61
19811;BME280;10065;49.632;8.346;2023-07-28T13:26:39;100018.03;;;22.24;84.70
19811;BME280;10065;49.632;8.346;2023-07-28T13:29:13;100012.03;;;22.22;84.34
19811;BME280;10065;49.632;8.346;2023-07-28T13:32:22;100011.66;;;22.18;84.17
19811;BME280;10065;49.632;8.346;2023-07-28T13:35:03;100017.91;;;22.19;84.61
19811;BME280;10065;49.632;8.346;2023-07-28T13:37:58;100018.72;;;22.19;84.99
19811;BME280;10065;49.632;8.346;2023-07-28T13:40:31;100018.03;;;22.24;85.77
19811;BME280;10065;49.632;8.346;2023-07-28T13:43:12;100011.09;;;22.28;86.36
19811;BME280;10065;49.632;8.346;2023-07-28T13:45:44;100013.69;;;22.23;87.53
19811;BME280;10065;49.632;8.346;2023-07-28T13:48:20;100014.16;;;22.20;89.11
19811;BME280;10065;49.632;8.346;2023-07-28T13:51:28;100012.84;;;22.10;92.19
19811;BME280;10065;49.632;8.346;2023-07-28T13:54:22;100009.00;;;22.06;95.37
19811;BME280;10065;49.632;8.346;2023-07-28T13:56:51;100013.66;;;21.99;97.16
19811;BME280;10065;49.632;8.346;2023-07-28T14:00:01;100006.69;;;21.92;98.45
19811;BME280;10065;49.632;8.346;2023-07-28T14:02:40;100010.56;;;21.84;99.67
19811;BME280;10065;49.632;8.346;2023-07-28T14:05:09;100013.16;;;21.79;100.00
19811;BME280;10065;49.632;8.346;2023-07-28T14:07:49;100012.31;;;21.78;100.00
19811;BME280;10065;49.632;8.346;2023-07-28T14:10:19;100013.22;;;21.72;100.00
19811;BME280;10065;49.632;8.346;2023-07-28T14:12:47;100015.38;;;21.70;100.00
19811;BME280;10065;49.632;8.346;2023-07-28T14:15:15;100020.38;;;21.67;100.00
19811;BME280;10065;49.632;8.346;2023-07-28T14:17:43;100017.09;;;21.65;100.00
19811;BME280;10065;49.632;8.346;2023-07-28T14:20:15;100022.50;;;21.65;100.00
19811;BME280;10065;49.632;8.346;2023-07-28T14:22:47;100019.22;;;21.63;100.00
19811;BME280;10065;49.632;8.346;2023-07-28T14:25:16;100022.16;;;21.61;100.00
19811;BME280;10065;49.632;8.346;2023-07-28T14:27:52;100020.28;;;21.62;100.00
19811;BME280;10065;49.632;8.346;2023-07-28T14:30:25;100021.78;;;21.58;100.00
19811;BME280;10065;49.632;8.346;2023-07-28T14:32:53;100020.59;;;21.54;100.00
19811;BME280;10065;49.632;8.346;2023-07-28T14:35:24;100024.19;;;21.48;100.00
19811;BME280;10065;49.632;8.346;2023-07-28T14:37:54;100028.09;;;21.52;100.00
19811;BME280;10065;49.632;8.346;2023-07-28T14:40:22;100028.09;;;21.52;100.00
19811;BME280;10065;49.632;8.346;2023-07-28T14:42:51;100028.09;;;21.52;100.00
19811;BME280;10065;49.632;8.346;2023-07-28T14:45:19;100031.47;;;21.47;100.00
19811;BME280;10065;49.632;8.346;2023-07-28T14:47:48;100029.47;;;21.43;100.00
19811;BME280;10065;49.632;8.346;2023-07-28T14:50:16;100027.94;;;21.47;100.00
19811;BME280;10065;49.632;8.346;2023-07-28T14:52:44;100031.13;;;21.44;100.00
19811;BME280;10065;49.632;8.346;2023-07-28T14:55:13;100034.03;;;21.42;100.00
19811;BME280;10065;49.632;8.346;2023-07-28T14:57:44;100033.00;;;21.43;100.00
19811;BME280;10065;49.632;8.346;2023-07-28T15:00:13;100027.81;;;21.42;100.00
19811;BME280;10065;49.632;8.346;2023-07-28T15:02:41;100034.41;;;21.46;100.00
19811;BME280;10065;49.632;8.346;2023-07-28T15:05:09;100028.28;;;21.38;100.00
19811;BME280;10065;49.632;8.346;2023-07-28T15:07:37;100027.59;;;21.43;100.00
19811;BME280;10065;49.632;8.346;2023-07-28T15:10:06;100026.56;;;21.44;100.00
19811;BME280;10065;49.632;8.346;2023-07-28T15:12:36;100025.72;;;21.44;100.00
19811;BME280;10065;49.632;8.346;2023-07-28T15:15:05;100027.38;;;21.45;100.00
19811;BME280;10065;49.632;8.346;2023-07-28T15:17:33;100025.13;;;21.42;100.00
19811;BME280;10065;49.632;8.346;2023-07-28T15:20:01;100026.19;;;21.40;100.00
19811;BME280;10065;49.632;8.346;2023-07-28T15:22:29;100018.69;;;21.43;100.00
19811;BME280;10065;49.632;8.346;2023-07-28T15:24:59;100019.13;;;21.39;100.00
19811;BME280;10065;49.632;8.346;2023-07-28T15:27:27;100027.81;;;21.42;100.00
19811;BME280;10065;49.632;8.346;2023-07-28T15:29:57;100023.34;;;21.35;100.00
19811;BME280;10065;49.632;8.346;2023-07-28T15:32:38;100026.06;;;21.35;100.00
19811;BME280;10065;49.632;8.346;2023-07-28T15:46:27;100023.69;;;21.39;100.00
19811;BME280;10065;49.632;8.346;2023-07-28T15:53:59;100025.34;;;21.28;100.00
19811;BME280;10065;49.632;8.346;2023-07-28T16:00:21;100030.41;;;21.36;100.00
19811;BME280;10065;49.632;8.346;2023-07-28T16:02:59;100032.41;;;21.41;100.00
19811;BME280;10065;49.632;8.346;2023-07-28T16:05:28;100030.53;;;21.42;100.00
19811;BME280;10065;49.632;8.346;2023-07-28T16:08:12;100025.72;;;21.44;100.00
19811;BME280;10065;49.632;8.346;2023-07-28T16:10:46;100026.41;;;21.39;100.00
19811;BME280;10065;49.632;8.346;2023-07-28T16:13:18;100028.16;;;21.33;100.00
19811;BME280;10065;49.632;8.346;2023-07-28T16:15:53;100029.66;;;21.29;100.00
19811;BME280;10065;49.632;8.346;2023-07-28T16:18:23;100030.94;;;21.27;100.00
19811;BME280;10065;49.632;8.346;2023-07-28T16:20:58;100024.34;;;21.23;100.00
19811;BME280;10065;49.632;8.346;2023-07-28T16:23:40;100031.00;;;21.20;100.00
19811;BME280;10065;49.632;8.346;2023-07-28T16:26:31;100023.41;;;21.17;100.00
19811;BME280;10065;49.632;8.346;2023-07-28T16:29:46;100033.13;;;21.18;100.00
19811;BME280;10065;49.632;8.346;2023-07-28T16:32:33;100024.00;;;21.19;100.00
19811;BME280;10065;49.632;8.346;2023-07-28T16:35:05;100031.00;;;21.20;100.00
19811;BME280;10065;49.632;8.346;2023-07-28T16:37:41;100025.56;;;21.27;100.00
19811;BME280;10065;49.632;8.346;2023-07-28T16:40:28;100025.56;;;21.27;100.00
19811;BME280;10065;49.632;8.346;2023-07-28T16:42:57;100030.34;;;21.25;100.00
19811;BME280;10065;49.632;8.346;2023-07-28T16:45:30;100028.03;;;21.28;100.00
19811;BME280;10065;49.632;8.346;2023-07-28T16:48:03;100025.91;;;21.30;100.00
19811;BME280;10065;49.632;8.346;2023-07-28T16:50:33;100027.53;;;21.31;100.00
19811;BME280;10065;49.632;8.346;2023-07-28T16:53:02;100027.19;;;21.28;100.00
19811;BME280;10065;49.632;8.346;2023-07-28T16:55:37;100031.66;;;21.34;100.00
19811;BME280;10065;49.632;8.346;2023-07-28T16:58:19;100031.66;;;21.34;100.00
19811;BME280;10065;49.632;8.346;2023-07-28T17:00:48;100034.81;;;21.31;100.00
19811;BME280;10065;49.632;8.346;2023-07-28T17:04:00;100032.94;;;21.31;100.00
19811;BME280;10065;49.632;8.346;2023-07-28T17:06:41;100036.78;;;21.24;100.00
19811;BME280;10065;49.632;8.346;2023-07-28T17:09:12;100026.94;;;21.29;100.00
19811;BME280;10065;49.632;8.346;2023-07-28T17:12:15;100035.50;;;21.26;100.00
19811;BME280;10065;49.632;8.346;2023-07-28T17:14:46;100026.09;;;21.17;100.00
19811;BME280;10065;49.632;8.346;2023-07-28T17:18:11;100030.56;;;21.23;100.00
19811;BME280;10065;49.632;8.346;2023-07-28T17:20:40;100033.25;;;21.23;100.00
19811;BME280;10065;49.632;8.346;2023-07-28T17:23:12;100030.72;;;21.28;100.00
19811;BME280;10065;49.632;8.346;2023-07-28T17:25:50;100033.25;;;21.23;100.00
19811;BME280;10065;49.632;8.346;2023-07-28T17:28:21;100038.44;;;21.25;100.00
19811;BME280;10065;49.632;8.346;2023-07-28T17:30:51;100039.56;;;21.17;100.00
19811;BME280;10065;49.632;8.346;2023-07-28T17:33:20;100042.41;;;21.22;100.00
19811;BME280;10065;49.632;8.346;2023-07-28T17:35:52;100044.06;;;21.23;100.00
19811;BME280;10065;49.632;8.346;2023-07-28T17:38:25;100037.91;;;21.16;100.00
19811;BME280;10065;49.632;8.346;2023-07-28T17:40:55;100044.06;;;21.23;100.00
19811;BME280;10065;49.632;8.346;2023-07-28T17:43:24;100038.06;;;21.21;100.00
19811;BME280;10065;49.632;8.346;2023-07-28T17:45:53;100043.91;;;21.18;100.00
19811;BME280;10065;49.632;8.346;2023-07-28T17:48:33;100045.97;;;21.16;100.00
19811;BME280;10065;49.632;8.346;2023-07-28T17:51:26;100041.84;;;21.14;100.00
19811;BME280;10065;49.632;8.346;2023-07-28T17:53:57;100034.81;;;21.13;100.00
19811;BME280;10065;49.632;8.346;2023-07-28T17:56:42;100032.94;;;21.13;100.00
19811;BME280;10065;49.632;8.346;2023-07-28T17:59:18;100032.34;;;21.11;100.00
19811;BME280;10065;49.632;8.346;2023-07-28T18:01:50;100030.13;;;21.08;100.00
19811;BME280;10065;49.632;8.346;2023-07-28T18:04:31;100042.06;;;21.12;100.00
19811;BME280;10065;49.632;8.346;2023-07-28T18:10:35;100043.69;;;21.01;100.00
19811;BME280;10065;49.632;8.346;2023-07-28T18:13:13;100046.66;;;20.93;100.00
19811;BME280;10065;49.632;8.346;2023-07-28T18:16:19;100046.44;;;20.95;100.00
19811;BME280;10065;49.632;8.346;2023-07-28T18:19:10;100040.00;;;20.96;100.00
19811;BME280;10065;49.632;8.346;2023-07-28T18:21:53;100054.19;;;20.91;100.00
19811;BME280;10065;49.632;8.346;2023-07-28T18:24:54;100049.00;;;20.90;100.00
19811;BME280;10065;49.632;8.346;2023-07-28T18:27:36;100045.72;;;20.88;100.00
19811;BME280;10065;49.632;8.346;2023-07-28T18:30:16;100051.25;;;20.93;100.00
19811;BME280;10065;49.632;8.346;2023-07-28T18:32:57;100050.06;;;20.89;100.00
19811;BME280;10065;49.632;8.346;2023-07-28T18:35:28;100047.75;;;20.92;100.00
19811;BME280;10065;49.632;8.346;2023-07-28T18:38:00;100042.94;;;20.94;100.00
19811;BME280;10065;49.632;8.346;2023-07-28T18:41:08;100053.34;;;20.91;100.00
19811;BME280;10065;49.632;8.346;2023-07-28T18:43:59;100050.66;;;20.91;100.00
19811;BME280;10065;49.632;8.346;2023-07-28T18:47:01;100053.44;;;20.84;100.00
19811;BME280;10065;49.632;8.346;2023-07-28T18:50:37;100051.53;;;20.85;100.00
19811;BME280;10065;49.632;8.346;2023-07-28T19:01:59;100049.13;;;20.77;100.00
19811;BME280;10065;49.632;8.346;2023-07-28T19:04:45;100048.78;;;20.73;100.00
19811;BME280;10065;49.632;8.346;2023-07-28T19:09:16;100050.66;;;20.73;100.00
19811;BME280;10065;49.632;8.346;2023-07-28T19:11:17;100051.69;;;20.72;100.00
19811;BME280;10065;49.632;8.346;2023-07-28T19:13:48;100058.53;;;20.74;100.00
19811;BME280;10065;49.632;8.346;2023-07-28T19:16:36;100067.56;;;20.80;100.00
19811;BME280;10065;49.632;8.346;2023-07-28T19:19:19;100069.81;;;20.83;100.00
19811;BME280;10065;49.632;8.346;2023-07-28T19:21:51;100072.13;;;20.79;100.00
19811;BME280;10065;49.632;8.346;2023-07-28T19:24:22;100069.06;;;20.76;100.00
19811;BME280;10065;49.632;8.346;2023-07-28T19:26:51;100074.91;;;20.73;100.00
19811;BME280;10065;49.632;8.346;2023-07-28T19:29:35;100079.25;;;20.74;100.00
19811;BME280;10065;49.632;8.346;2023-07-28T19:32:05;100080.50;;;20.71;100.00
19811;BME280;10065;49.632;8.346;2023-07-28T19:34:34;100088.59;;;20.71;100.00
19811;BME280;10065;49.632;8.346;2023-07-28T19:37:02;100093.59;;;20.67;100.00
19811;BME280;10065;49.632;8.346;2023-07-28T19:39:30;100089.72;;;20.63;100.00
19811;BME280;10065;49.632;8.346;2023-07-28T19:41:58;100103.78;;;20.65;100.00
19811;BME280;10065;49.632;8.346;2023-07-28T19:44:27;100103.19;;;20.63;100.00
19811;BME280;10065;49.632;8.346;2023-07-28T19:47:12;100109.81;;;20.61;100.00
19811;BME280;10065;49.632;8.346;2023-07-28T19:49:59;100110.81;;;20.67;100.00
19811;BME280;10065;49.632;8.346;2023-07-28T19:52:38;100112.09;;;20.64;100.00
19811;BME280;10065;49.632;8.346;2023-07-28T19:55:10;100108.56;;;20.63;100.00
19811;BME280;10065;49.632;8.346;2023-07-28T19:57:38;100109.59;;;20.62;100.00
19811;BME280;10065;49.632;8.346;2023-07-28T20:00:07;100109.19;;;20.65;100.00
19811;BME280;10065;49.632;8.346;2023-07-28T20:02:39;100113.34;;;20.61;100.00
19811;BME280;10065;49.632;8.346;2023-07-28T20:05:10;100115.00;;;20.62;100.00
19811;BME280;10065;49.632;8.346;2023-07-28T20:07:43;100105.06;;;20.63;100.00
19811;BME280;10065;49.632;8.346;2023-07-28T20:10:49;100100.91;;;20.60;100.00
19811;BME280;10065;49.632;8.346;2023-07-28T20:14:25;100097.63;;;20.58;100.00
19811;BME280;10065;49.632;8.346;2023-07-28T20:32:44;100092.69;;;20.55;100.00
19811;BME280;10065;49.632;8.346;2023-07-28T20:43:23;100100.78;;;20.55;100.00